Yarmouth Port, MA

11:50 EST le 27 février 2015 (GMT -0500)
Chatham Municipal | Change Station
CLOSE
Current Station
Aéroport
Location: Chatham,
Altitude: 66 ft
Stations météo à proximité

Alt. 66 ft 41.69 °N, 69.99 °W | Updated 58 minutes ago

Partiellement nuageux
Partiellement nuageux
24 ° F
Paraît 14 ° F
N
9
Vent Variable Vent de NNO

Aujourd'hui
Haut(e) -- | Bas -- ° F
--% Risque de précip.
Hier
Haut(e) -- | Bas -- ° F
Precip. -- pouce
6:19 AM 5:28 PM
Lune gibbeuse croissante, 70% visible
Pression 30.33 pouce
Visibilité 10.0 Miles terrestres
Nuages Nuages épars 10000 ft
Refroidissement éolien 14 ° F
Point de rosée 8 ° F
Humidité 51%
Précipitations 0.00 pouce
Profondeur de la couche neigeuse Non disponible.
UV 4 sur 12
Pollen .40 sur 12
Qualité de l'air Non disponible.
Flu Activity Non disponible.
METAR KCQX 271552Z AUTO 33008KT 300V010 10SM SCT100 M04/M13 A3033 RMK AO2 SLP271 T10441133

More Conditions Fewer Conditions

Pression 30.33 pouce
Visibilité 10.0 Miles terrestres
Nuages Nuages épars 10000 ft
Refroidissement éolien 14 ° F
Point de rosée 8 ° F
Humidité 51%
Précipitations 0.00 pouce
Profondeur de la couche neigeuse Non disponible.
UV 4 sur 12
Pollen .40 sur 12
Qualité de l'air Non disponible.
Flu Activity Non disponible.
METAR KCQX 271552Z AUTO 33008KT 300V010 10SM SCT100 M04/M13 A3033 RMK AO2 SLP271 T10441133

More Conditions Fewer Conditions

10-Day Weather Forecast

Almanac

Astronomie

Feb. 27, 2015 Lever Coucher
Temps réel
Crépuscule civil
Crépuscule nautique
Crépuscule astronomique
Lune
Durée de lumière visible
Longueur du jour
Tomorrow will be .
, % of the Moon is Illuminated

Extrêmes aujourd'hui

State Highs State Lows

Community

WunderPhotos

Upload Photos

1,800,732 Photos téléchargées !

WunderBlogs® & News

Nearby

Qualité de l'air

  Qualité de l'air Indice de la qualité de l'air Polluant
Not available.

Épaisseur de neige

Station Depth Altitude

Activité sismique

Ville Distance Mag. Time & Date
Minimum magnitude displayed is 2.5.

Températures des eaux côtières

Lieu Température

Stations météo à proximité